Etusivu
METAR-TAF:

METAR-TAF

Lentoasemat :

Kárpathoksen lentoasema

Kárpathos, Kreikka

Leveyspiiri: 35-24-51N, Pituuspiiri: 027-08-54E, korkeus merenpinnasta: 6 m

Tämänhetkinen sää

Tämä raportti tehtiin 34 minuuttia sitten, kello 16.20 UTC
Tuuli 7 kn lännestä/lounaasta
Lämpötila 21°C
Kosteus 64%
Ilmanpaine 1017 hPa
Näkyvyys 10 km tai enemmän
Muutamia pilviä 1800 ft:n korkeudessa

METAR: LGKP 291620Z 25007KT 9999 FEW018 21/14 Q1017

Aika: 19:54 (16:54 UTC)

Sääennuste

Tämä raportti tehtiin 2 tuntia ja 54 minuuttia sitten, kello 14.00 UTC
Ennuste voimassa 29. päivästä klo 15 UTC - 29. päivään klo 24 UTC
Tuuli 12 kn lännestä/luoteesta
Näkyvyys 10 km tai enemmän
Hajanaisia pilviä 2000 ft:n korkeudessa

TAF: LGKP 291400Z 2915/2924 29012KT 9999 SCT020

Säähavainnot ja -ennusteet yli 4000 lentoasemalta (METAR- ja TAF-raportit).

Käytössä olevat sääasemat on merkitty karttaan keltaisilla ja punaisilla pisteillä.

Aseta hiiri pisteen päälle nähdäksesi sääaseman nimen.

Klikkaa sitten nähdäksesi säähavainnot ja -ennusteet.

Kartan vaihtaminen: klikkaa mustalla rastilla varustettuja vihreitä pisteitä, niin voit zoomata sisään; viivalla varustettua vihreää pistettä, niin voit zoomata ulos tai vihreitä nuolia, niin pääset viereisille kartoille.


METAR-TAF: